sensor_id;sensor_type;location;lat;lon;timestamp;P1;durP1;ratioP1;P2;durP2;ratioP2
51616;SDS011;37697;52.588;13.394;2023-04-24T00:00:59;5.80;;;4.00;;
51616;SDS011;37697;52.588;13.394;2023-04-24T00:06:25;4.90;;;3.90;;
51616;SDS011;37697;52.588;13.394;2023-04-24T00:11:53;6.10;;;4.50;;
51616;SDS011;37697;52.588;13.394;2023-04-24T00:17:19;5.10;;;4.20;;
51616;SDS011;37697;52.588;13.394;2023-04-24T00:22:45;5.10;;;4.10;;
51616;SDS011;37697;52.588;13.394;2023-04-24T00:28:11;5.50;;;4.20;;
51616;SDS011;37697;52.588;13.394;2023-04-24T00:33:36;5.30;;;3.60;;
51616;SDS011;37697;52.588;13.394;2023-04-24T00:39:02;5.20;;;3.80;;
51616;SDS011;37697;52.588;13.394;2023-04-24T00:44:28;5.30;;;4.10;;
51616;SDS011;37697;52.588;13.394;2023-04-24T00:49:54;5.60;;;4.10;;
51616;SDS011;37697;52.588;13.394;2023-04-24T00:55:20;5.20;;;3.90;;
51616;SDS011;37697;52.588;13.394;2023-04-24T01:00:46;7.90;;;4.80;;
51616;SDS011;37697;52.588;13.394;2023-04-24T01:06:14;6.40;;;4.70;;
51616;SDS011;37697;52.588;13.394;2023-04-24T01:11:40;7.50;;;5.20;;
51616;SDS011;37697;52.588;13.394;2023-04-24T01:17:06;7.70;;;5.20;;
51616;SDS011;37697;52.588;13.394;2023-04-24T01:22:32;9.10;;;5.30;;
51616;SDS011;37697;52.588;13.394;2023-04-24T01:27:58;7.00;;;5.00;;
51616;SDS011;37697;52.588;13.394;2023-04-24T01:33:24;7.40;;;5.30;;
51616;SDS011;37697;52.588;13.394;2023-04-24T01:38:51;5.30;;;4.10;;
51616;SDS011;37697;52.588;13.394;2023-04-24T01:44:16;5.80;;;4.60;;
51616;SDS011;37697;52.588;13.394;2023-04-24T01:49:43;4.80;;;3.80;;
51616;SDS011;37697;52.588;13.394;2023-04-24T01:55:10;4.90;;;3.50;;
51616;SDS011;37697;52.588;13.394;2023-04-24T02:00:36;6.00;;;3.50;;
51616;SDS011;37697;52.588;13.394;2023-04-24T02:06:02;4.30;;;3.20;;
51616;SDS011;37697;52.588;13.394;2023-04-24T02:11:28;5.70;;;4.10;;
51616;SDS011;37697;52.588;13.394;2023-04-24T02:16:53;5.10;;;3.70;;
51616;SDS011;37697;52.588;13.394;2023-04-24T02:22:19;4.20;;;3.70;;
51616;SDS011;37697;52.588;13.394;2023-04-24T02:27:45;5.30;;;4.00;;
51616;SDS011;37697;52.588;13.394;2023-04-24T02:33:11;4.60;;;3.90;;
51616;SDS011;37697;52.588;13.394;2023-04-24T02:38:37;6.80;;;4.10;;
51616;SDS011;37697;52.588;13.394;2023-04-24T02:44:03;5.00;;;4.10;;
51616;SDS011;37697;52.588;13.394;2023-04-24T02:49:29;5.20;;;3.60;;
51616;SDS011;37697;52.588;13.394;2023-04-24T02:54:54;6.00;;;4.50;;
51616;SDS011;37697;52.588;13.394;2023-04-24T03:00:20;4.50;;;4.10;;
51616;SDS011;37697;52.588;13.394;2023-04-24T03:05:46;7.20;;;4.70;;
51616;SDS011;37697;52.588;13.394;2023-04-24T03:11:12;7.30;;;4.30;;
51616;SDS011;37697;52.588;13.394;2023-04-24T03:16:37;6.10;;;4.70;;
51616;SDS011;37697;52.588;13.394;2023-04-24T03:22:03;5.70;;;4.50;;
51616;SDS011;37697;52.588;13.394;2023-04-24T03:27:29;5.30;;;4.40;;
51616;SDS011;37697;52.588;13.394;2023-04-24T03:32:55;5.50;;;4.50;;
51616;SDS011;37697;52.588;13.394;2023-04-24T03:38:21;4.80;;;4.30;;
51616;SDS011;37697;52.588;13.394;2023-04-24T03:43:46;5.90;;;4.40;;
51616;SDS011;37697;52.588;13.394;2023-04-24T03:49:12;5.70;;;4.80;;
51616;SDS011;37697;52.588;13.394;2023-04-24T03:54:38;5.70;;;4.60;;
51616;SDS011;37697;52.588;13.394;2023-04-24T04:00:04;7.40;;;5.00;;
51616;SDS011;37697;52.588;13.394;2023-04-24T04:05:31;6.40;;;4.60;;
51616;SDS011;37697;52.588;13.394;2023-04-24T04:10:57;5.20;;;4.50;;
51616;SDS011;37697;52.588;13.394;2023-04-24T04:16:23;5.80;;;4.70;;
51616;SDS011;37697;52.588;13.394;2023-04-24T04:21:48;4.30;;;3.80;;
51616;SDS011;37697;52.588;13.394;2023-04-24T04:27:14;4.50;;;4.00;;
51616;SDS011;37697;52.588;13.394;2023-04-24T04:32:40;5.80;;;4.20;;
51616;SDS011;37697;52.588;13.394;2023-04-24T04:38:06;5.70;;;3.70;;
51616;SDS011;37697;52.588;13.394;2023-04-24T04:43:32;4.80;;;3.90;;
51616;SDS011;37697;52.588;13.394;2023-04-24T04:48:57;8.00;;;4.30;;
51616;SDS011;37697;52.588;13.394;2023-04-24T04:54:24;5.30;;;3.80;;
51616;SDS011;37697;52.588;13.394;2023-04-24T04:59:49;4.40;;;3.50;;
51616;SDS011;37697;52.588;13.394;2023-04-24T05:05:15;4.60;;;3.50;;
51616;SDS011;37697;52.588;13.394;2023-04-24T05:10:41;5.30;;;3.40;;
51616;SDS011;37697;52.588;13.394;2023-04-24T05:16:07;3.60;;;2.40;;
51616;SDS011;37697;52.588;13.394;2023-04-24T05:21:33;4.60;;;3.20;;
51616;SDS011;37697;52.588;13.394;2023-04-24T05:26:47;4.60;;;3.00;;
51616;SDS011;37697;52.588;13.394;2023-04-24T05:32:13;6.50;;;3.40;;
51616;SDS011;37697;52.588;13.394;2023-04-24T05:37:39;4.20;;;2.90;;
51616;SDS011;37697;52.588;13.394;2023-04-24T05:42:57;5.40;;;2.60;;
51616;SDS011;37697;52.588;13.394;2023-04-24T05:48:23;3.80;;;2.70;;
51616;SDS011;37697;52.588;13.394;2023-04-24T05:53:48;4.10;;;2.80;;
51616;SDS011;37697;52.588;13.394;2023-04-24T05:59:14;4.10;;;2.00;;
51616;SDS011;37697;52.588;13.394;2023-04-24T06:04:40;4.30;;;2.10;;
51616;SDS011;37697;52.588;13.394;2023-04-24T06:10:06;5.40;;;2.10;;
51616;SDS011;37697;52.588;13.394;2023-04-24T06:15:33;3.40;;;2.00;;
51616;SDS011;37697;52.588;13.394;2023-04-24T06:20:59;3.10;;;2.00;;
51616;SDS011;37697;52.588;13.394;2023-04-24T06:26:25;4.00;;;1.70;;
51616;SDS011;37697;52.588;13.394;2023-04-24T06:31:51;4.30;;;1.70;;
51616;SDS011;37697;52.588;13.394;2023-04-24T06:37:17;5.20;;;1.50;;
51616;SDS011;37697;52.588;13.394;2023-04-24T06:42:24;3.50;;;1.50;;
51616;SDS011;37697;52.588;13.394;2023-04-24T06:47:50;2.80;;;1.30;;
51616;SDS011;37697;52.588;13.394;2023-04-24T06:53:15;2.40;;;1.50;;
51616;SDS011;37697;52.588;13.394;2023-04-24T06:58:41;3.90;;;1.80;;
51616;SDS011;37697;52.588;13.394;2023-04-24T07:04:07;3.30;;;1.20;;
51616;SDS011;37697;52.588;13.394;2023-04-24T07:09:33;2.20;;;1.10;;
51616;SDS011;37697;52.588;13.394;2023-04-24T07:14:50;1.60;;;0.90;;
51616;SDS011;37697;52.588;13.394;2023-04-24T07:20:16;1.30;;;0.80;;
51616;SDS011;37697;52.588;13.394;2023-04-24T07:25:42;0.90;;;0.60;;
51616;SDS011;37697;52.588;13.394;2023-04-24T07:31:07;3.70;;;0.80;;
51616;SDS011;37697;52.588;13.394;2023-04-24T07:36:27;2.30;;;0.60;;
51616;SDS011;37697;52.588;13.394;2023-04-24T07:41:53;1.00;;;0.50;;
51616;SDS011;37697;52.588;13.394;2023-04-24T07:47:19;1.40;;;0.60;;
51616;SDS011;37697;52.588;13.394;2023-04-24T07:52:45;2.30;;;0.50;;
51616;SDS011;37697;52.588;13.394;2023-04-24T07:58:11;0.70;;;0.50;;
51616;SDS011;37697;52.588;13.394;2023-04-24T08:03:27;1.10;;;0.60;;
51616;SDS011;37697;52.588;13.394;2023-04-24T08:08:53;1.80;;;0.60;;
51616;SDS011;37697;52.588;13.394;2023-04-24T08:14:20;0.50;;;0.40;;
51616;SDS011;37697;52.588;13.394;2023-04-24T08:19:46;0.70;;;0.50;;
51616;SDS011;37697;52.588;13.394;2023-04-24T08:25:05;0.70;;;0.50;;
51616;SDS011;37697;52.588;13.394;2023-04-24T08:30:32;0.40;;;0.40;;
51616;SDS011;37697;52.588;13.394;2023-04-24T08:35:50;1.00;;;0.30;;
51616;SDS011;37697;52.588;13.394;2023-04-24T08:41:16;1.20;;;0.50;;
51616;SDS011;37697;52.588;13.394;2023-04-24T08:46:41;0.50;;;0.40;;
51616;SDS011;37697;52.588;13.394;2023-04-24T08:52:08;1.50;;;0.70;;
51616;SDS011;37697;52.588;13.394;2023-04-24T08:57:32;1.20;;;0.50;;
51616;SDS011;37697;52.588;13.394;2023-04-24T09:02:52;0.90;;;0.40;;
51616;SDS011;37697;52.588;13.394;2023-04-24T09:08:19;1.20;;;0.50;;
51616;SDS011;37697;52.588;13.394;2023-04-24T09:13:46;1.80;;;0.50;;
51616;SDS011;37697;52.588;13.394;2023-04-24T09:19:13;0.50;;;0.50;;
51616;SDS011;37697;52.588;13.394;2023-04-24T09:24:32;0.30;;;0.30;;
51616;SDS011;37697;52.588;13.394;2023-04-24T09:29:58;3.60;;;0.50;;
51616;SDS011;37697;52.588;13.394;2023-04-24T09:35:24;2.00;;;0.50;;
51616;SDS011;37697;52.588;13.394;2023-04-24T09:40:50;1.50;;;0.50;;
51616;SDS011;37697;52.588;13.394;2023-04-24T09:46:16;0.90;;;0.50;;
51616;SDS011;37697;52.588;13.394;2023-04-24T09:51:44;0.90;;;0.50;;
51616;SDS011;37697;52.588;13.394;2023-04-24T09:57:09;3.50;;;0.70;;
51616;SDS011;37697;52.588;13.394;2023-04-24T10:02:35;2.40;;;0.60;;
51616;SDS011;37697;52.588;13.394;2023-04-24T10:07:57;2.10;;;0.70;;
51616;SDS011;37697;52.588;13.394;2023-04-24T10:13:24;0.70;;;0.50;;
51616;SDS011;37697;52.588;13.394;2023-04-24T10:18:50;1.40;;;0.60;;
51616;SDS011;37697;52.588;13.394;2023-04-24T10:24:17;3.10;;;0.60;;
51616;SDS011;37697;52.588;13.394;2023-04-24T10:29:39;1.60;;;0.60;;
51616;SDS011;37697;52.588;13.394;2023-04-24T10:35:07;1.10;;;0.60;;
51616;SDS011;37697;52.588;13.394;2023-04-24T10:40:34;1.50;;;0.60;;
51616;SDS011;37697;52.588;13.394;2023-04-24T10:46:01;0.70;;;0.50;;
51616;SDS011;37697;52.588;13.394;2023-04-24T10:51:42;1.40;;;0.50;;
51616;SDS011;37697;52.588;13.394;2023-04-24T10:57:28;1.70;;;0.70;;
51616;SDS011;37697;52.588;13.394;2023-04-24T11:02:54;0.80;;;0.50;;
51616;SDS011;37697;52.588;13.394;2023-04-24T11:08:25;1.60;;;0.70;;
51616;SDS011;37697;52.588;13.394;2023-04-24T11:14:05;1.10;;;0.60;;
51616;SDS011;37697;52.588;13.394;2023-04-24T11:19:34;0.90;;;0.50;;
51616;SDS011;37697;52.588;13.394;2023-04-24T11:25:00;2.80;;;0.70;;
51616;SDS011;37697;52.588;13.394;2023-04-24T11:30:28;2.00;;;0.60;;
51616;SDS011;37697;52.588;13.394;2023-04-24T11:35:55;1.20;;;0.50;;
51616;SDS011;37697;52.588;13.394;2023-04-24T11:41:21;1.70;;;0.50;;
51616;SDS011;37697;52.588;13.394;2023-04-24T11:46:47;3.60;;;0.60;;
51616;SDS011;37697;52.588;13.394;2023-04-24T11:52:16;3.10;;;0.70;;
51616;SDS011;37697;52.588;13.394;2023-04-24T11:57:43;2.10;;;0.50;;
51616;SDS011;37697;52.588;13.394;2023-04-24T12:03:10;3.60;;;0.80;;
51616;SDS011;37697;52.588;13.394;2023-04-24T12:08:37;1.60;;;0.80;;
51616;SDS011;37697;52.588;13.394;2023-04-24T12:14:14;2.00;;;0.80;;
51616;SDS011;37697;52.588;13.394;2023-04-24T12:19:44;1.80;;;0.70;;
51616;SDS011;37697;52.588;13.394;2023-04-24T12:25:11;2.60;;;0.70;;
51616;SDS011;37697;52.588;13.394;2023-04-24T12:30:40;4.10;;;0.90;;
51616;SDS011;37697;52.588;13.394;2023-04-24T12:36:06;0.90;;;0.60;;
51616;SDS011;37697;52.588;13.394;2023-04-24T12:41:35;1.60;;;0.70;;
51616;SDS011;37697;52.588;13.394;2023-04-24T12:47:01;2.80;;;0.70;;
51616;SDS011;37697;52.588;13.394;2023-04-24T12:52:35;1.70;;;0.70;;
51616;SDS011;37697;52.588;13.394;2023-04-24T12:58:02;0.60;;;0.60;;
51616;SDS011;37697;52.588;13.394;2023-04-24T13:03:28;3.50;;;0.60;;
51616;SDS011;37697;52.588;13.394;2023-04-24T13:08:54;1.30;;;0.80;;
51616;SDS011;37697;52.588;13.394;2023-04-24T13:14:19;2.70;;;0.70;;
51616;SDS011;37697;52.588;13.394;2023-04-24T13:19:45;1.00;;;0.60;;
51616;SDS011;37697;52.588;13.394;2023-04-24T13:25:13;1.30;;;0.70;;
51616;SDS011;37697;52.588;13.394;2023-04-24T13:30:32;1.00;;;0.70;;
51616;SDS011;37697;52.588;13.394;2023-04-24T13:35:50;1.60;;;1.10;;
51616;SDS011;37697;52.588;13.394;2023-04-24T13:41:16;1.90;;;0.60;;
51616;SDS011;37697;52.588;13.394;2023-04-24T13:46:42;1.10;;;0.70;;
51616;SDS011;37697;52.588;13.394;2023-04-24T13:52:08;1.30;;;0.80;;
51616;SDS011;37697;52.588;13.394;2023-04-24T13:57:32;4.90;;;0.90;;
51616;SDS011;37697;52.588;13.394;2023-04-24T14:02:58;1.80;;;0.50;;
51616;SDS011;37697;52.588;13.394;2023-04-24T14:08:24;0.70;;;0.60;;
51616;SDS011;37697;52.588;13.394;2023-04-24T14:13:49;0.90;;;0.80;;
51616;SDS011;37697;52.588;13.394;2023-04-24T14:19:15;1.90;;;0.80;;
51616;SDS011;37697;52.588;13.394;2023-04-24T14:24:41;1.30;;;0.70;;
51616;SDS011;37697;52.588;13.394;2023-04-24T14:30:08;2.50;;;0.90;;
51616;SDS011;37697;52.588;13.394;2023-04-24T14:35:35;2.60;;;0.60;;
51616;SDS011;37697;52.588;13.394;2023-04-24T14:41:01;2.40;;;0.60;;
51616;SDS011;37697;52.588;13.394;2023-04-24T14:46:27;1.40;;;0.60;;
51616;SDS011;37697;52.588;13.394;2023-04-24T14:51:53;0.90;;;0.80;;
51616;SDS011;37697;52.588;13.394;2023-04-24T14:57:19;2.10;;;0.50;;
51616;SDS011;37697;52.588;13.394;2023-04-24T15:02:45;3.10;;;0.70;;
51616;SDS011;37697;52.588;13.394;2023-04-24T15:08:04;1.00;;;0.70;;
51616;SDS011;37697;52.588;13.394;2023-04-24T15:13:30;0.70;;;0.60;;
51616;SDS011;37697;52.588;13.394;2023-04-24T15:18:56;3.00;;;0.70;;
51616;SDS011;37697;52.588;13.394;2023-04-24T15:24:14;1.80;;;0.80;;
51616;SDS011;37697;52.588;13.394;2023-04-24T15:29:40;2.80;;;0.90;;
51616;SDS011;37697;52.588;13.394;2023-04-24T15:35:07;1.60;;;0.60;;
51616;SDS011;37697;52.588;13.394;2023-04-24T15:40:34;1.10;;;0.80;;
51616;SDS011;37697;52.588;13.394;2023-04-24T15:46:00;1.40;;;0.80;;
51616;SDS011;37697;52.588;13.394;2023-04-24T15:51:27;1.60;;;0.90;;
51616;SDS011;37697;52.588;13.394;2023-04-24T15:56:53;0.80;;;0.60;;
51616;SDS011;37697;52.588;13.394;2023-04-24T16:02:19;1.00;;;0.60;;
51616;SDS011;37697;52.588;13.394;2023-04-24T16:07:46;1.90;;;0.70;;
51616;SDS011;37697;52.588;13.394;2023-04-24T16:13:12;2.10;;;0.80;;
51616;SDS011;37697;52.588;13.394;2023-04-24T16:18:35;1.60;;;0.80;;
51616;SDS011;37697;52.588;13.394;2023-04-24T16:24:01;1.60;;;0.80;;
51616;SDS011;37697;52.588;13.394;2023-04-24T16:29:27;1.50;;;0.70;;
51616;SDS011;37697;52.588;13.394;2023-04-24T16:34:53;1.40;;;0.70;;
51616;SDS011;37697;52.588;13.394;2023-04-24T16:40:19;1.60;;;1.00;;
51616;SDS011;37697;52.588;13.394;2023-04-24T16:45:45;2.00;;;0.90;;
51616;SDS011;37697;52.588;13.394;2023-04-24T16:51:11;3.40;;;1.00;;
51616;SDS011;37697;52.588;13.394;2023-04-24T16:56:37;1.70;;;0.90;;
51616;SDS011;37697;52.588;13.394;2023-04-24T17:02:03;2.60;;;1.20;;
51616;SDS011;37697;52.588;13.394;2023-04-24T17:07:22;2.40;;;1.10;;
51616;SDS011;37697;52.588;13.394;2023-04-24T17:12:48;2.00;;;1.10;;
51616;SDS011;37697;52.588;13.394;2023-04-24T17:18:07;2.40;;;0.90;;
51616;SDS011;37697;52.588;13.394;2023-04-24T17:23:33;1.80;;;1.20;;
51616;SDS011;37697;52.588;13.394;2023-04-24T17:28:41;1.20;;;0.90;;
51616;SDS011;37697;52.588;13.394;2023-04-24T17:34:07;1.20;;;1.00;;
51616;SDS011;37697;52.588;13.394;2023-04-24T17:39:33;2.20;;;1.10;;
51616;SDS011;37697;52.588;13.394;2023-04-24T17:44:59;2.10;;;1.00;;
51616;SDS011;37697;52.588;13.394;2023-04-24T17:50:18;2.00;;;0.90;;
51616;SDS011;37697;52.588;13.394;2023-04-24T17:55:44;1.50;;;0.90;;
51616;SDS011;37697;52.588;13.394;2023-04-24T18:01:03;2.00;;;1.10;;
51616;SDS011;37697;52.588;13.394;2023-04-24T18:06:30;1.50;;;1.00;;
51616;SDS011;37697;52.588;13.394;2023-04-24T18:11:56;2.40;;;1.20;;
51616;SDS011;37697;52.588;13.394;2023-04-24T18:17:21;3.20;;;1.10;;
51616;SDS011;37697;52.588;13.394;2023-04-24T18:22:48;2.90;;;1.00;;
51616;SDS011;37697;52.588;13.394;2023-04-24T18:28:13;2.40;;;0.80;;
51616;SDS011;37697;52.588;13.394;2023-04-24T18:33:39;2.90;;;1.30;;
51616;SDS011;37697;52.588;13.394;2023-04-24T18:39:05;2.30;;;0.50;;
51616;SDS011;37697;52.588;13.394;2023-04-24T18:44:31;1.50;;;0.50;;
51616;SDS011;37697;52.588;13.394;2023-04-24T18:49:48;0.50;;;0.30;;
51616;SDS011;37697;52.588;13.394;2023-04-24T18:55:14;0.40;;;0.30;;
51616;SDS011;37697;52.588;13.394;2023-04-24T19:00:40;0.60;;;0.50;;
51616;SDS011;37697;52.588;13.394;2023-04-24T19:06:08;1.60;;;0.50;;
51616;SDS011;37697;52.588;13.394;2023-04-24T19:11:34;0.70;;;0.50;;
51616;SDS011;37697;52.588;13.394;2023-04-24T19:17:00;1.20;;;0.60;;
51616;SDS011;37697;52.588;13.394;2023-04-24T19:22:25;1.60;;;0.50;;
51616;SDS011;37697;52.588;13.394;2023-04-24T19:27:49;2.20;;;0.60;;
51616;SDS011;37697;52.588;13.394;2023-04-24T19:33:15;0.40;;;0.40;;
51616;SDS011;37697;52.588;13.394;2023-04-24T19:38:41;1.60;;;0.60;;
51616;SDS011;37697;52.588;13.394;2023-04-24T19:43:59;0.90;;;0.60;;
51616;SDS011;37697;52.588;13.394;2023-04-24T19:49:25;0.80;;;0.70;;
51616;SDS011;37697;52.588;13.394;2023-04-24T19:54:51;0.60;;;0.60;;
51616;SDS011;37697;52.588;13.394;2023-04-24T20:00:17;1.00;;;0.80;;
51616;SDS011;37697;52.588;13.394;2023-04-24T20:05:43;1.40;;;0.70;;
51616;SDS011;37697;52.588;13.394;2023-04-24T20:11:09;1.70;;;0.80;;
51616;SDS011;37697;52.588;13.394;2023-04-24T20:16:34;1.30;;;0.80;;
51616;SDS011;37697;52.588;13.394;2023-04-24T20:22:00;2.60;;;1.10;;
51616;SDS011;37697;52.588;13.394;2023-04-24T20:27:26;2.70;;;1.10;;
51616;SDS011;37697;52.588;13.394;2023-04-24T20:32:52;2.90;;;1.20;;
51616;SDS011;37697;52.588;13.394;2023-04-24T20:38:18;2.10;;;1.10;;
51616;SDS011;37697;52.588;13.394;2023-04-24T20:43:44;3.80;;;1.30;;
51616;SDS011;37697;52.588;13.394;2023-04-24T20:49:10;2.40;;;1.40;;
51616;SDS011;37697;52.588;13.394;2023-04-24T20:54:35;4.00;;;1.70;;
51616;SDS011;37697;52.588;13.394;2023-04-24T21:00:02;6.20;;;1.80;;
51616;SDS011;37697;52.588;13.394;2023-04-24T21:05:30;4.10;;;1.80;;
51616;SDS011;37697;52.588;13.394;2023-04-24T21:10:56;3.40;;;1.40;;
51616;SDS011;37697;52.588;13.394;2023-04-24T21:16:21;6.30;;;2.20;;
51616;SDS011;37697;52.588;13.394;2023-04-24T21:21:47;3.20;;;2.00;;
51616;SDS011;37697;52.588;13.394;2023-04-24T21:27:13;3.70;;;1.80;;
51616;SDS011;37697;52.588;13.394;2023-04-24T21:32:39;4.50;;;2.20;;
51616;SDS011;37697;52.588;13.394;2023-04-24T21:38:05;4.50;;;2.00;;
51616;SDS011;37697;52.588;13.394;2023-04-24T21:43:31;5.00;;;2.50;;
51616;SDS011;37697;52.588;13.394;2023-04-24T21:48:57;3.50;;;2.30;;
51616;SDS011;37697;52.588;13.394;2023-04-24T21:54:23;5.50;;;3.20;;
51616;SDS011;37697;52.588;13.394;2023-04-24T21:59:49;6.10;;;2.50;;
51616;SDS011;37697;52.588;13.394;2023-04-24T22:05:14;7.40;;;3.50;;
51616;SDS011;37697;52.588;13.394;2023-04-24T22:10:43;9.10;;;4.00;;
51616;SDS011;37697;52.588;13.394;2023-04-24T22:16:22;4.20;;;2.90;;
51616;SDS011;37697;52.588;13.394;2023-04-24T22:21:48;7.10;;;4.00;;
51616;SDS011;37697;52.588;13.394;2023-04-24T22:27:13;5.30;;;3.60;;
51616;SDS011;37697;52.588;13.394;2023-04-24T22:32:39;8.50;;;4.10;;
51616;SDS011;37697;52.588;13.394;2023-04-24T22:38:05;5.00;;;3.10;;
51616;SDS011;37697;52.588;13.394;2023-04-24T22:43:31;5.20;;;3.40;;
51616;SDS011;37697;52.588;13.394;2023-04-24T22:48:57;5.40;;;3.10;;
51616;SDS011;37697;52.588;13.394;2023-04-24T22:54:23;5.60;;;3.40;;
51616;SDS011;37697;52.588;13.394;2023-04-24T22:59:49;5.30;;;3.20;;
51616;SDS011;37697;52.588;13.394;2023-04-24T23:05:16;5.20;;;3.00;;
51616;SDS011;37697;52.588;13.394;2023-04-24T23:10:42;5.20;;;3.00;;
51616;SDS011;37697;52.588;13.394;2023-04-24T23:16:08;5.40;;;2.90;;
51616;SDS011;37697;52.588;13.394;2023-04-24T23:21:33;7.20;;;3.10;;
51616;SDS011;37697;52.588;13.394;2023-04-24T23:26:59;7.70;;;3.10;;
51616;SDS011;37697;52.588;13.394;2023-04-24T23:32:25;6.60;;;3.30;;
51616;SDS011;37697;52.588;13.394;2023-04-24T23:37:49;7.40;;;3.10;;
51616;SDS011;37697;52.588;13.394;2023-04-24T23:43:15;3.50;;;2.20;;
51616;SDS011;37697;52.588;13.394;2023-04-24T23:48:41;5.20;;;2.60;;
51616;SDS011;37697;52.588;13.394;2023-04-24T23:54:07;4.80;;;2.70;;
51616;SDS011;37697;52.588;13.394;2023-04-24T23:59:32;5.40;;;2.40;;
